Time;durP1;ratioP1;P1;durP2;ratioP2;P2;SDS_P1;SDS_P2;PMS_P1;PMS_P2;Temp;Humidity;BMP_temperature;BMP_pressure;BME280_temperature;BME280_humidity;BME280_pressure;Samples;Min_cycle;Max_cycle;Signal;HPM_P1;HPM_P2
2023/04/11 00:01:03;;;;;;;11.98;10.60;;;7.40;99.90;;;;;;5073319;28;20327;-89
2023/04/11 00:03:33;;;;;;;12.50;10.50;;;7.40;99.90;;;;;;5073443;28;20217;-89
2023/04/11 00:06:02;;;;;;;12.50;10.45;;;7.40;99.90;;;;;;5073224;28;20209;-89
2023/04/11 00:08:30;;;;;;;12.80;11.60;;;7.40;99.90;;;;;;5072662;28;20207;-89
2023/04/11 00:10:58;;;;;;;14.32;11.63;;;7.40;99.90;;;;;;5073205;28;20241;-89
2023/04/11 00:13:27;;;;;;;12.48;11.18;;;7.30;99.90;;;;;;5073362;28;20272;-89
2023/04/11 00:15:55;;;;;;;13.25;11.05;;;7.20;99.90;;;;;;5073171;28;20209;-89
2023/04/11 00:18:24;;;;;;;11.85;10.35;;;7.10;99.90;;;;;;5072597;28;20212;-89
2023/04/11 00:20:54;;;;;;;13.30;10.57;;;7.00;99.90;;;;;;5072041;28;20209;-89
2023/04/11 00:23:22;;;;;;;12.95;11.55;;;7.00;99.90;;;;;;5073067;28;20216;-89
2023/04/11 00:25:50;;;;;;;12.85;11.15;;;6.90;99.90;;;;;;5074671;28;20209;-89
2023/04/11 00:28:18;;;;;;;14.70;10.75;;;6.90;99.90;;;;;;5074799;28;20209;-90
2023/04/11 00:30:47;;;;;;;11.63;10.45;;;6.80;99.90;;;;;;5075088;28;20228;-89
2023/04/11 00:33:15;;;;;;;11.05;10.05;;;6.80;99.90;;;;;;5075305;28;20217;-89
2023/04/11 00:35:44;;;;;;;11.73;10.57;;;6.80;99.90;;;;;;5075099;28;20287;-89
2023/04/11 00:38:14;;;;;;;11.38;10.25;;;6.80;99.90;;;;;;5074694;28;20201;-89
2023/04/11 00:40:43;;;;;;;12.63;11.32;;;6.80;99.90;;;;;;5075024;28;20215;-89
2023/04/11 00:43:12;;;;;;;16.48;12.65;;;6.80;99.90;;;;;;5074958;28;20209;-89
2023/04/11 00:45:40;;;;;;;12.82;11.43;;;6.80;99.90;;;;;;5075027;28;20209;-89
2023/04/11 00:48:08;;;;;;;11.90;10.70;;;6.80;99.90;;;;;;5074047;28;20209;-89
2023/04/11 00:50:41;;;;;;;14.73;12.18;;;6.80;99.90;;;;;;5074350;28;20225;-89
2023/04/11 00:53:10;;;;;;;11.93;10.82;;;6.90;99.90;;;;;;5075247;28;20205;-89
2023/04/11 00:55:40;;;;;;;12.85;10.40;;;6.90;99.90;;;;;;5074840;28;20263;-89
2023/04/11 00:58:09;;;;;;;11.85;10.65;;;6.90;99.90;;;;;;5074027;28;20295;-89
2023/04/11 01:00:37;;;;;;;11.73;10.40;;;6.90;99.90;;;;;;5074738;28;20211;-89
2023/04/11 01:03:07;;;;;;;12.27;10.98;;;6.80;99.90;;;;;;5074237;28;20235;-89
2023/04/11 01:05:36;;;;;;;13.93;12.02;;;6.80;99.90;;;;;;5074474;28;20262;-90
2023/04/11 01:08:05;;;;;;;13.55;11.07;;;6.70;99.90;;;;;;5074331;28;20211;-89
2023/04/11 01:10:33;;;;;;;13.90;11.75;;;6.70;99.90;;;;;;5074258;28;20225;-89
2023/04/11 01:13:03;;;;;;;11.90;9.93;;;6.70;99.90;;;;;;5074295;28;20236;-89
2023/04/11 01:15:31;;;;;;;14.18;11.25;;;6.60;99.90;;;;;;5074428;28;20209;-89
2023/04/11 01:18:00;;;;;;;12.32;11.02;;;6.70;99.90;;;;;;5073502;28;20205;-89
2023/04/11 01:20:30;;;;;;;12.52;10.77;;;6.60;99.90;;;;;;5074304;28;20209;-89
2023/04/11 01:23:00;;;;;;;14.05;11.45;;;6.50;99.90;;;;;;5074089;28;20264;-90
2023/04/11 01:25:30;;;;;;;11.88;10.65;;;6.50;99.90;;;;;;5074156;28;20200;-89
2023/04/11 01:27:58;;;;;;;11.25;10.10;;;6.40;99.90;;;;;;5073688;28;20237;-89
2023/04/11 01:30:27;;;;;;;12.43;10.70;;;6.30;99.90;;;;;;5073742;28;20201;-90
2023/04/11 01:32:55;;;;;;;12.00;10.80;;;6.20;99.90;;;;;;5074152;28;20316;-89
2023/04/11 01:35:24;;;;;;;13.75;11.65;;;6.20;99.90;;;;;;5074060;28;20303;-89
2023/04/11 01:37:52;;;;;;;11.38;10.27;;;6.20;99.90;;;;;;5073116;28;20220;-89
2023/04/11 01:40:22;;;;;;;12.00;10.75;;;6.20;99.90;;;;;;5073320;28;20221;-89
2023/04/11 01:42:53;;;;;;;15.93;11.13;;;6.10;99.90;;;;;;5073491;28;20276;-88
2023/04/11 01:45:22;;;;;;;14.25;11.27;;;6.10;99.90;;;;;;5073908;28;20209;-89
2023/04/11 01:47:53;;;;;;;11.18;9.98;;;6.10;99.90;;;;;;5072943;28;20205;-89
2023/04/11 01:50:21;;;;;;;11.23;10.10;;;6.10;99.90;;;;;;5073573;28;20209;-89
2023/04/11 01:52:50;;;;;;;12.43;10.90;;;6.10;99.90;;;;;;5072465;28;20228;-89
2023/04/11 01:55:19;;;;;;;11.40;10.30;;;6.10;99.90;;;;;;5073354;28;20205;-90
2023/04/11 01:57:47;;;;;;;10.93;9.82;;;6.00;99.90;;;;;;5073154;28;20205;-89
2023/04/11 02:00:18;;;;;;;13.88;10.02;;;6.00;99.90;;;;;;5073547;28;20209;-90
2023/04/11 02:02:46;;;;;;;11.95;10.75;;;6.00;99.90;;;;;;5073278;28;20233;-89
2023/04/11 02:05:15;;;;;;;15.90;12.38;;;5.90;99.90;;;;;;5073482;28;20209;-90
2023/04/11 02:07:43;;;;;;;12.40;11.15;;;5.90;99.90;;;;;;5072419;28;20273;-90
2023/04/11 02:10:12;;;;;;;11.25;10.15;;;5.90;99.90;;;;;;5073437;28;20208;-90
2023/04/11 02:12:40;;;;;;;12.45;11.25;;;5.90;99.90;;;;;;5072837;28;20228;-89
2023/04/11 02:15:09;;;;;;;12.95;11.60;;;5.90;99.90;;;;;;5073354;28;20205;-90
2023/04/11 02:17:44;;;;;;;11.95;10.85;;;5.90;99.90;;;;;;5072757;28;20205;-90
2023/04/11 02:20:13;;;;;;;14.70;11.43;;;5.80;99.90;;;;;;5073030;28;20211;-89
2023/04/11 02:22:42;;;;;;;13.07;11.77;;;5.80;99.90;;;;;;5072884;28;20312;-89
2023/04/11 02:25:10;;;;;;;12.93;11.38;;;5.80;99.90;;;;;;5073358;28;20211;-89
2023/04/11 02:27:38;;;;;;;13.65;11.27;;;5.80;99.90;;;;;;5073039;28;20217;-90
2023/04/11 02:30:08;;;;;;;12.15;10.68;;;5.80;99.90;;;;;;5072518;28;20216;-90
2023/04/11 02:32:38;;;;;;;11.98;10.77;;;5.80;99.90;;;;;;5073733;28;20259;-89
2023/04/11 02:35:09;;;;;;;12.23;10.95;;;5.70;99.90;;;;;;5073230;28;20304;-88
2023/04/11 02:37:37;;;;;;;13.00;11.50;;;5.70;99.90;;;;;;5072448;28;20209;-80
2023/04/11 02:40:08;;;;;;;12.02;10.82;;;5.70;99.90;;;;;;5072896;28;20211;-80
2023/04/11 02:42:37;;;;;;;15.55;10.98;;;5.60;99.90;;;;;;5072533;28;20221;-80
2023/04/11 02:45:06;;;;;;;13.90;11.73;;;5.60;99.90;;;;;;5073021;28;20212;-80
2023/04/11 02:47:35;;;;;;;14.02;11.77;;;5.60;99.90;;;;;;5071992;28;20213;-80
2023/04/11 02:50:06;;;;;;;11.98;10.77;;;5.60;99.90;;;;;;5072462;28;20217;-80
2023/04/11 02:52:36;;;;;;;12.27;10.93;;;5.50;99.90;;;;;;5072268;28;20315;-80
2023/04/11 02:55:05;;;;;;;11.80;10.60;;;5.50;99.90;;;;;;5072711;28;20213;-80
2023/04/11 02:57:33;;;;;;;13.10;11.75;;;5.50;99.90;;;;;;5071984;28;20237;-80
2023/04/11 03:00:02;;;;;;;12.50;11.20;;;5.50;99.90;;;;;;5072417;28;20205;-80
2023/04/11 03:02:30;;;;;;;12.20;10.93;;;5.50;99.90;;;;;;5072270;28;20233;-80
2023/04/11 03:05:02;;;;;;;12.77;11.45;;;5.50;99.90;;;;;;5072945;28;20211;-80
2023/04/11 03:07:32;;;;;;;13.68;11.55;;;5.50;99.90;;;;;;5071673;28;20208;-80
2023/04/11 03:10:01;;;;;;;13.00;11.70;;;5.50;99.90;;;;;;5072345;28;20204;-80
2023/04/11 03:12:29;;;;;;;12.80;11.00;;;5.50;99.90;;;;;;5071772;28;20225;-80
2023/04/11 03:14:57;;;;;;;13.02;11.55;;;5.50;99.90;;;;;;5072332;28;20216;-80
2023/04/11 03:17:26;;;;;;;12.27;10.82;;;5.50;99.90;;;;;;5071885;28;20209;-80
2023/04/11 03:19:54;;;;;;;12.15;10.93;;;5.50;99.90;;;;;;5072499;28;20205;-80
2023/04/11 03:22:23;;;;;;;12.68;11.25;;;5.60;99.90;;;;;;5072175;28;20231;-80
2023/04/11 03:24:53;;;;;;;12.57;10.52;;;5.60;99.90;;;;;;5072096;28;20255;-80
2023/04/11 03:27:21;;;;;;;13.45;11.70;;;5.70;99.90;;;;;;5072042;28;20204;-80
2023/04/11 03:29:49;;;;;;;14.15;11.45;;;5.70;99.90;;;;;;5072231;28;20212;-80
2023/04/11 03:32:17;;;;;;;12.18;11.02;;;5.80;99.90;;;;;;5072226;28;20221;-80
2023/04/11 03:34:46;;;;;;;12.75;11.45;;;5.80;99.90;;;;;;5072294;28;20212;-80
2023/04/11 03:37:14;;;;;;;11.52;10.43;;;5.80;99.90;;;;;;5071675;28;20209;-80
2023/04/11 03:39:42;;;;;;;11.15;10.10;;;5.90;99.90;;;;;;5072227;28;20205;-80
2023/04/11 03:42:12;;;;;;;13.43;11.45;;;5.90;99.90;;;;;;5072319;28;20221;-80
2023/04/11 03:44:40;;;;;;;11.43;10.32;;;5.90;99.90;;;;;;5072345;28;20216;-80
2023/04/11 03:47:08;;;;;;;11.93;10.63;;;5.90;99.90;;;;;;5071652;28;20211;-80
2023/04/11 03:49:37;;;;;;;13.48;11.48;;;5.90;99.90;;;;;;5071983;28;20211;-80
2023/04/11 03:52:08;;;;;;;14.63;10.57;;;5.90;99.90;;;;;;5071386;28;20237;-80
2023/04/11 03:54:37;;;;;;;13.98;11.55;;;5.90;99.90;;;;;;5072068;28;20213;-80
2023/04/11 03:57:05;;;;;;;11.18;10.07;;;5.90;99.90;;;;;;5071525;28;20205;-80
2023/04/11 03:59:35;;;;;;;12.18;10.75;;;6.00;99.90;;;;;;5072175;28;20212;-80
2023/04/11 04:02:03;;;;;;;10.63;9.52;;;6.00;99.90;;;;;;5071855;28;20231;-80
2023/04/11 04:04:33;;;;;;;11.60;10.38;;;6.00;99.90;;;;;;5071537;28;20217;-80
2023/04/11 04:07:03;;;;;;;12.93;11.32;;;6.00;99.90;;;;;;5071279;28;20205;-80
2023/04/11 04:09:31;;;;;;;13.75;10.80;;;6.00;99.90;;;;;;5071835;28;20227;-80
2023/04/11 04:12:00;;;;;;;13.30;11.82;;;6.10;99.90;;;;;;5071689;28;20235;-80
2023/04/11 04:14:28;;;;;;;16.50;11.18;;;6.00;99.90;;;;;;5072280;28;20201;-80
2023/04/11 04:16:58;;;;;;;12.07;10.73;;;6.00;99.90;;;;;;5074982;28;20304;-80
2023/04/11 04:19:27;;;;;;;12.70;10.65;;;5.90;99.90;;;;;;5075387;28;20254;-80
2023/04/11 04:21:57;;;;;;;12.95;11.63;;;5.90;99.90;;;;;;5075233;28;20239;-80
2023/04/11 04:24:25;;;;;;;13.73;10.35;;;5.90;99.90;;;;;;5075571;28;20212;-80
2023/04/11 04:26:56;;;;;;;11.88;10.63;;;5.80;99.90;;;;;;5074563;28;20284;-79
2023/04/11 04:29:32;;;;;;;11.65;10.50;;;5.80;99.90;;;;;;5075043;28;20270;-80
2023/04/11 04:32:09;;;;;;;12.85;11.20;;;5.80;99.90;;;;;;5075018;28;20229;-80
2023/04/11 04:34:45;;;;;;;11.57;10.48;;;5.80;99.90;;;;;;5074802;28;20238;-80
2023/04/11 04:37:20;;;;;;;11.70;10.48;;;5.80;99.90;;;;;;5074677;28;20300;-80
2023/04/11 04:40:07;;;;;;;12.45;11.20;;;5.80;99.90;;;;;;5074974;28;20254;-80
2023/04/11 04:42:57;;;;;;;11.55;10.30;;;5.80;99.90;;;;;;5074715;28;20271;-80
2023/04/11 04:45:26;;;;;;;11.93;10.73;;;5.80;99.90;;;;;;5074612;28;20225;-80
2023/04/11 04:47:55;;;;;;;10.95;9.85;;;5.90;99.90;;;;;;5074186;28;20213;-80
2023/04/11 04:50:24;;;;;;;11.98;10.77;;;5.90;99.90;;;;;;5074697;28;20212;-80
2023/04/11 04:52:52;;;;;;;12.48;11.27;;;5.90;99.90;;;;;;5074929;28;20232;-80
2023/04/11 04:55:20;;;;;;;15.13;10.98;;;5.90;99.90;;;;;;5074772;28;20216;-82
2023/04/11 04:57:49;;;;;;;15.93;11.55;;;5.90;99.90;;;;;;5074279;28;20268;-89
2023/04/11 05:00:18;;;;;;;12.20;10.82;;;5.90;99.90;;;;;;5074528;28;20212;-91
2023/04/11 05:02:53;;;;;;;13.75;12.27;;;5.90;99.90;;;;;;5074348;28;20233;-91
2023/04/11 05:05:23;;;;;;;13.93;11.02;;;5.90;99.90;;;;;;5074734;28;20209;-91
2023/04/11 05:07:51;;;;;;;12.85;11.55;;;5.90;99.90;;;;;;5073819;28;20205;-91
2023/04/11 05:10:20;;;;;;;12.35;11.05;;;5.80;99.90;;;;;;5074376;28;20284;-91
2023/04/11 05:12:48;;;;;;;17.50;12.55;;;5.90;99.90;;;;;;5074169;28;20225;-81
2023/04/11 05:15:17;;;;;;;11.02;9.95;;;5.90;99.90;;;;;;5074128;28;20291;-81
2023/04/11 05:17:45;;;;;;;11.25;10.15;;;5.90;99.90;;;;;;5073934;28;20205;-81
2023/04/11 05:20:14;;;;;;;14.98;12.23;;;5.90;99.90;;;;;;5074478;28;20216;-81
2023/04/11 05:22:44;;;;;;;12.75;11.30;;;6.00;99.90;;;;;;5074616;28;20225;-91
2023/04/11 05:25:15;;;;;;;13.85;12.02;;;6.00;99.90;;;;;;5074028;28;20205;-81
2023/04/11 05:27:43;;;;;;;15.80;12.77;;;6.00;99.90;;;;;;5072595;28;20204;-91
2023/04/11 05:30:13;;;;;;;13.57;12.15;;;6.10;99.90;;;;;;5074325;28;20204;-91
2023/04/11 05:32:59;;;;;;;12.00;10.77;;;6.10;99.90;;;;;;5073883;28;20320;-91
2023/04/11 05:35:46;;;;;;;14.73;12.50;;;6.20;99.90;;;;;;5074266;28;20188;-81
2023/04/11 05:38:15;;;;;;;13.93;12.32;;;6.20;99.90;;;;;;5073247;28;20266;-81
2023/04/11 05:40:44;;;;;;;16.52;12.95;;;6.30;99.90;;;;;;5074118;28;20205;-82
2023/04/11 05:43:13;;;;;;;15.40;12.75;;;6.30;99.90;;;;;;5073996;28;20209;-82
2023/04/11 05:45:46;;;;;;;13.10;11.80;;;6.40;99.90;;;;;;5074115;28;20209;-82
2023/04/11 05:48:14;;;;;;;19.45;12.98;;;6.50;99.90;;;;;;5073429;28;20212;-79
2023/04/11 05:50:43;;;;;;;15.52;11.90;;;6.60;99.90;;;;;;5073264;28;20248;-80
2023/04/11 05:53:11;;;;;;;15.65;13.40;;;6.60;99.90;;;;;;5073657;28;20221;-80
2023/04/11 05:55:41;;;;;;;27.80;13.20;;;6.60;99.90;;;;;;5073483;28;20212;-90
2023/04/11 05:58:10;;;;;;;14.23;12.77;;;6.70;99.90;;;;;;5073117;28;20209;-89
2023/04/11 06:00:39;;;;;;;17.73;12.93;;;6.80;99.90;;;;;;5073504;28;20211;-90
2023/04/11 06:03:08;;;;;;;13.63;12.32;;;6.80;99.90;;;;;;5073081;28;20229;-80
2023/04/11 06:05:37;;;;;;;15.60;12.70;;;6.80;99.90;;;;;;5073414;28;20219;-80
2023/04/11 06:08:09;;;;;;;13.95;11.82;;;6.90;99.90;;;;;;5072618;28;20209;-89
2023/04/11 06:10:37;;;;;;;15.00;12.48;;;6.90;99.90;;;;;;5073463;28;20213;-89
2023/04/11 06:13:06;;;;;;;23.85;13.55;;;6.90;99.90;;;;;;5072966;28;20231;-89
2023/04/11 06:15:35;;;;;;;19.75;13.63;;;6.90;99.90;;;;;;5072758;28;20212;-80
2023/04/11 06:18:03;;;;;;;15.40;12.43;;;6.90;99.90;;;;;;5072347;28;20213;-80
2023/04/11 06:20:32;;;;;;;13.55;12.13;;;6.90;99.90;;;;;;5073247;28;20231;-80
2023/04/11 06:23:00;;;;;;;15.90;11.30;;;7.00;99.90;;;;;;5072914;28;20239;-89
2023/04/11 06:25:28;;;;;;;13.80;12.40;;;7.10;99.90;;;;;;5073272;28;20215;-89
2023/04/11 06:28:00;;;;;;;15.48;13.85;;;7.10;99.90;;;;;;5072451;28;20205;-89
2023/04/11 06:30:29;;;;;;;19.40;15.82;;;7.20;99.90;;;;;;5072843;28;20220;-89
2023/04/11 06:32:58;;;;;;;24.15;15.07;;;7.30;99.90;;;;;;5072988;28;20221;-90
2023/04/11 06:35:26;;;;;;;19.17;15.32;;;7.40;99.90;;;;;;5072877;28;20316;-90
2023/04/11 06:37:55;;;;;;;14.45;12.95;;;7.40;99.90;;;;;;5073660;28;20209;-89
2023/04/11 06:40:25;;;;;;;37.30;12.85;;;7.50;99.90;;;;;;5073642;28;20236;-89
2023/04/11 06:42:54;;;;;;;14.95;13.32;;;7.50;99.90;;;;;;5072543;28;20225;-80
2023/04/11 06:45:25;;;;;;;15.13;12.52;;;7.60;99.90;;;;;;5072806;28;20201;-81
2023/04/11 06:47:55;;;;;;;15.20;13.60;;;7.60;99.90;;;;;;5071992;28;20235;-80
2023/04/11 06:50:25;;;;;;;15.73;13.32;;;7.60;99.90;;;;;;5072415;28;20258;-81
2023/04/11 06:52:54;;;;;;;16.00;14.30;;;7.60;99.90;;;;;;5072288;28;20299;-90
2023/04/11 06:55:22;;;;;;;22.38;15.65;;;7.80;99.90;;;;;;5072093;28;20224;-89
2023/04/11 06:57:51;;;;;;;17.27;14.10;;;7.90;99.90;;;;;;5071905;28;20228;-90
2023/04/11 07:00:20;;;;;;;15.27;12.82;;;8.00;99.90;;;;;;5072609;28;20200;-90
2023/04/11 07:02:48;;;;;;;15.57;13.98;;;8.20;99.90;;;;;;5072141;28;20233;-90
2023/04/11 07:05:19;;;;;;;17.50;14.40;;;8.40;99.90;;;;;;5072373;28;20264;-90
2023/04/11 07:07:47;;;;;;;16.73;13.90;;;8.60;99.90;;;;;;5071930;28;20215;-89
2023/04/11 07:10:15;;;;;;;15.20;13.40;;;8.70;99.90;;;;;;5072567;28;20209;-81
2023/04/11 07:12:44;;;;;;;15.00;13.50;;;8.90;99.90;;;;;;5072924;28;20233;-89
2023/04/11 07:15:12;;;;;;;16.27;13.77;;;9.00;99.90;;;;;;5072518;28;20233;-89
2023/04/11 07:17:40;;;;;;;23.25;14.10;;;9.00;99.90;;;;;;5071799;28;20219;-89
2023/04/11 07:20:10;;;;;;;16.73;14.32;;;9.00;99.90;;;;;;5072156;28;20212;-88
2023/04/11 07:22:42;;;;;;;17.17;14.10;;;9.00;99.90;;;;;;5072018;28;20312;-88
2023/04/11 07:25:10;;;;;;;15.35;12.60;;;9.20;99.90;;;;;;5072560;28;20379;-88
2023/04/11 07:27:41;;;;;;;14.15;12.75;;;9.30;99.90;;;;;;5071867;28;20212;-88
2023/04/11 07:30:10;;;;;;;17.83;13.95;;;9.40;99.90;;;;;;5072146;28;20205;-88
2023/04/11 07:32:39;;;;;;;19.75;14.95;;;9.50;99.90;;;;;;5072130;28;20245;-88
2023/04/11 07:35:08;;;;;;;16.55;13.77;;;9.70;99.90;;;;;;5071859;28;20221;-88
2023/04/11 07:37:37;;;;;;;17.90;14.30;;;9.70;99.90;;;;;;5071668;28;20209;-88
2023/04/11 07:40:10;;;;;;;13.75;12.38;;;9.60;99.90;;;;;;5072138;28;20288;-88
2023/04/11 07:42:39;;;;;;;13.00;11.70;;;9.70;99.90;;;;;;5071955;28;20288;-88
2023/04/11 07:45:08;;;;;;;24.02;13.07;;;9.70;99.90;;;;;;5071689;28;20236;-87
2023/04/11 07:47:36;;;;;;;13.93;12.52;;;9.70;99.90;;;;;;5071260;28;20281;-87
2023/04/11 07:50:06;;;;;;;14.40;12.35;;;9.80;99.90;;;;;;5073595;28;20209;-88
2023/04/11 07:52:34;;;;;;;12.50;10.80;;;9.80;99.90;;;;;;5076310;28;20229;-87
2023/04/11 07:55:03;;;;;;;13.77;11.38;;;9.80;99.90;;;;;;5075856;28;20280;-88
2023/04/11 07:57:33;;;;;;;15.77;12.63;;;9.90;99.90;;;;;;5073903;28;20209;-88
2023/04/11 08:00:01;;;;;;;13.50;12.07;;;9.80;99.90;;;;;;5083340;28;20201;-87
2023/04/11 08:02:29;;;;;;;14.68;12.65;;;9.90;99.90;;;;;;5080868;28;20233;-88
2023/04/11 08:04:58;;;;;;;13.65;12.00;;;9.90;99.90;;;;;;5075564;28;20197;-88
2023/04/11 08:07:27;;;;;;;12.07;10.85;;;10.00;99.90;;;;;;5075324;28;20209;-87
2023/04/11 08:09:56;;;;;;;13.02;11.68;;;10.00;99.90;;;;;;5075316;28;20274;-88
2023/04/11 08:12:25;;;;;;;14.88;11.88;;;10.10;99.90;;;;;;5075285;28;20217;-88
2023/04/11 08:14:55;;;;;;;12.07;10.65;;;10.10;99.90;;;;;;5074955;28;20227;-88
2023/04/11 08:17:27;;;;;;;13.38;11.40;;;10.20;99.90;;;;;;5074580;28;20284;-88
2023/04/11 08:19:56;;;;;;;14.18;11.45;;;10.20;99.90;;;;;;5075299;28;20216;-88
2023/04/11 08:22:25;;;;;;;12.30;9.82;;;10.30;99.90;;;;;;5074879;28;20244;-88
2023/04/11 08:24:56;;;;;;;13.90;11.63;;;10.30;99.90;;;;;;5074972;28;20252;-88
2023/04/11 08:27:25;;;;;;;13.18;11.38;;;10.40;99.90;;;;;;5074476;28;20212;-82
2023/04/11 08:29:54;;;;;;;12.30;11.10;;;10.50;99.90;;;;;;5074731;28;20204;-82
2023/04/11 08:32:23;;;;;;;15.25;12.15;;;10.50;99.90;;;;;;5074865;28;20229;-81
2023/04/11 08:34:51;;;;;;;20.95;13.23;;;10.60;99.90;;;;;;5075116;28;20217;-82
2023/04/11 08:37:19;;;;;;;12.80;11.52;;;10.70;99.90;;;;;;5073982;28;20206;-82
2023/04/11 08:39:50;;;;;;;17.00;11.77;;;10.70;99.90;;;;;;5074702;28;20204;-82
2023/04/11 08:42:23;;;;;;;15.38;12.38;;;10.90;99.90;;;;;;5074549;28;20286;-82
2023/04/11 08:44:55;;;;;;;14.10;12.40;;;10.80;99.90;;;;;;5074877;28;20305;-82
2023/04/11 08:47:24;;;;;;;12.45;11.18;;;10.90;99.90;;;;;;5074361;28;20232;-82
2023/04/11 08:49:53;;;;;;;13.15;10.57;;;10.90;99.90;;;;;;5074452;28;20215;-81
2023/04/11 08:52:22;;;;;;;12.63;10.55;;;11.00;99.90;;;;;;5074491;28;20250;-82
2023/04/11 08:54:54;;;;;;;13.00;11.00;;;11.20;99.90;;;;;;5073993;28;20221;-82
2023/04/11 08:57:30;;;;;;;12.43;11.15;;;11.30;99.90;;;;;;5072850;28;20303;-81
2023/04/11 09:00:12;;;;;;;11.95;10.80;;;11.40;99.90;;;;;;5074369;28;20269;-82
2023/04/11 09:02:56;;;;;;;11.65;10.45;;;11.50;99.90;;;;;;5074144;28;20319;-82
2023/04/11 09:05:28;;;;;;;9.55;8.45;;;11.60;99.90;;;;;;5074233;28;20205;-82
2023/04/11 09:07:57;;;;;;;9.80;8.73;;;11.80;99.90;;;;;;5073679;28;20212;-82
2023/04/11 09:10:26;;;;;;;11.75;9.05;;;11.90;99.90;;;;;;5074104;28;20205;-82
2023/04/11 09:12:55;;;;;;;8.65;7.80;;;12.00;99.90;;;;;;5073967;28;20225;-82
2023/04/11 09:15:26;;;;;;;8.73;7.72;;;12.10;99.90;;;;;;5073851;28;20224;-82
2023/04/11 09:17:56;;;;;;;11.73;8.55;;;12.30;99.90;;;;;;5073670;28;20211;-82
2023/04/11 09:20:29;;;;;;;6.13;5.63;;;12.40;99.90;;;;;;5073852;28;20251;-82
2023/04/11 09:22:59;;;;;;;6.50;4.85;;;12.70;99.90;;;;;;5073954;28;20229;-81
2023/04/11 09:25:28;;;;;;;5.82;5.10;;;12.90;99.90;;;;;;5073873;28;20198;-82
2023/04/11 09:28:08;;;;;;;2.53;2.33;;;13.00;99.90;;;;;;5073182;28;20201;-82
2023/04/11 09:30:38;;;;;;;2.38;1.85;;;13.10;99.90;;;;;;5073876;28;20243;-88
2023/04/11 09:33:21;;;;;;;4.32;3.92;;;13.20;99.90;;;;;;5073663;28;20229;-88
2023/04/11 09:35:51;;;;;;;4.15;3.78;;;13.20;99.90;;;;;;5073538;28;20307;-88
2023/04/11 09:38:30;;;;;;;4.07;3.53;;;13.10;99.90;;;;;;5073032;28;20204;-88
2023/04/11 09:40:59;;;;;;;6.15;4.40;;;13.00;99.90;;;;;;5073776;28;20224;-88
2023/04/11 09:43:28;;;;;;;5.25;3.10;;;12.90;99.90;;;;;;5073126;28;20204;-88
2023/04/11 09:46:17;;;;;;;3.20;2.90;;;12.60;99.90;;;;;;5073305;28;20227;-88
2023/04/11 09:48:45;;;;;;;3.58;2.50;;;12.30;99.90;;;;;;5072750;28;20213;-88
2023/04/11 09:51:15;;;;;;;1.92;1.83;;;12.10;99.90;;;;;;5073485;28;20228;-88
2023/04/11 09:54:03;;;;;;;1.98;1.80;;;11.90;99.90;;;;;;5073214;28;20207;-88
2023/04/11 09:56:34;;;;;;;2.25;2.05;;;11.70;99.90;;;;;;5071862;28;20274;-88
2023/04/11 09:59:04;;;;;;;3.75;2.55;;;11.70;99.90;;;;;;5072889;28;20209;-88
2023/04/11 10:01:34;;;;;;;2.78;2.08;;;11.60;99.90;;;;;;5073205;28;20255;-89
2023/04/11 10:04:05;;;;;;;2.30;2.10;;;11.60;99.90;;;;;;5073048;28;20232;-88
2023/04/11 10:06:41;;;;;;;2.05;1.95;;;11.50;99.90;;;;;;5073137;28;20216;-88
2023/04/11 10:09:11;;;;;;;2.13;2.03;;;11.50;99.90;;;;;;5072840;28;20201;-88
2023/04/11 10:11:41;;;;;;;2.67;2.47;;;11.50;99.90;;;;;;5073079;28;20264;-88
2023/04/11 10:14:37;;;;;;;2.15;2.05;;;11.50;99.90;;;;;;5073162;28;20221;-88
2023/04/11 10:17:16;;;;;;;2.55;2.35;;;11.50;99.90;;;;;;5071893;28;20229;-88
2023/04/11 10:19:50;;;;;;;2.30;2.05;;;11.40;99.90;;;;;;5072950;28;20209;-88
2023/04/11 10:22:56;;;;;;;2.20;2.00;;;11.50;99.90;;;;;;5072233;28;20228;-81
2023/04/11 10:25:25;;;;;;;3.38;2.58;;;11.40;99.90;;;;;;5073071;28;20217;-81
2023/04/11 10:27:59;;;;;;;2.35;2.15;;;11.40;99.90;;;;;;5071827;28;20232;-81
2023/04/11 10:31:02;;;;;;;2.10;2.00;;;11.50;99.90;;;;;;5072559;28;20205;-81
2023/04/11 10:33:34;;;;;;;3.38;2.25;;;11.40;99.90;;;;;;5072452;28;20288;-81
2023/04/11 10:36:05;;;;;;;2.50;2.30;;;11.40;99.90;;;;;;5072333;28;20231;-81
2023/04/11 10:38:47;;;;;;;2.28;2.08;;;11.50;99.90;;;;;;5072188;28;20240;-81
2023/04/11 10:41:18;;;;;;;2.53;2.33;;;11.60;99.90;;;;;;5072276;28;20221;-81
2023/04/11 10:43:46;;;;;;;2.20;2.10;;;11.70;99.90;;;;;;5072637;28;20205;-81
2023/04/11 10:46:20;;;;;;;2.67;2.47;;;11.70;99.90;;;;;;5072852;28;20201;-81
2023/04/11 10:49:00;;;;;;;4.43;2.05;;;11.80;99.90;;;;;;5071566;28;20231;-81
2023/04/11 10:51:30;;;;;;;2.60;2.40;;;11.80;99.90;;;;;;5072292;28;20258;-81
2023/04/11 10:53:59;;;;;;;2.22;2.10;;;11.80;99.90;;;;;;5071927;28;20287;-81
2023/04/11 10:56:56;;;;;;;1.70;1.60;;;11.70;99.90;;;;;;5072119;28;20220;-81
2023/04/11 10:59:59;;;;;;;2.20;2.00;;;11.70;99.90;;;;;;5072471;28;20318;-81
2023/04/11 11:02:38;;;;;;;2.42;2.22;;;11.70;99.90;;;;;;5072267;28;20236;-81
2023/04/11 11:05:20;;;;;;;2.53;2.33;;;11.60;99.90;;;;;;5071979;28;20219;-87
2023/04/11 11:07:51;;;;;;;3.38;2.90;;;11.70;99.90;;;;;;5071524;28;20204;-87
2023/04/11 11:10:43;;;;;;;1.88;1.77;;;11.70;99.90;;;;;;5072289;28;20208;-86
2023/04/11 11:13:13;;;;;;;2.35;2.15;;;11.70;99.90;;;;;;5072342;28;20201;-86
2023/04/11 11:15:48;;;;;;;3.42;3.15;;;11.80;99.90;;;;;;5072046;28;20212;-80
2023/04/11 11:18:16;;;;;;;3.55;3.25;;;11.80;99.90;;;;;;5071625;28;20208;-80
2023/04/11 11:20:46;;;;;;;3.10;2.80;;;11.80;99.90;;;;;;5071950;28;20291;-80
2023/04/11 11:23:14;;;;;;;3.40;3.10;;;11.70;99.90;;;;;;5072313;28;20215;-80
2023/04/11 11:25:53;;;;;;;3.72;3.00;;;11.70;99.90;;;;;;5075818;28;20260;-86
2023/04/11 11:28:21;;;;;;;3.58;3.08;;;11.70;99.90;;;;;;5075994;28;20235;-80
2023/04/11 11:30:54;;;;;;;3.63;3.33;;;11.70;99.90;;;;;;5076253;28;20205;-80
2023/04/11 11:33:25;;;;;;;3.88;3.58;;;11.70;99.90;;;;;;5076090;28;20444;-80
2023/04/11 11:35:56;;;;;;;4.80;3.95;;;11.70;99.90;;;;;;5075689;28;20205;-81
2023/04/11 11:38:27;;;;;;;2.85;2.65;;;11.80;99.90;;;;;;5075335;28;20215;-81
2023/04/11 11:40:57;;;;;;;5.00;2.88;;;11.70;99.90;;;;;;5076213;28;20201;-86
2023/04/11 11:43:26;;;;;;;2.78;2.58;;;11.70;99.90;;;;;;5075822;28;20215;-86
2023/04/11 11:46:09;;;;;;;4.78;3.03;;;11.60;99.90;;;;;;5075525;28;20244;-86
2023/04/11 11:48:37;;;;;;;2.67;2.47;;;11.60;99.90;;;;;;5075001;28;20211;-88
2023/04/11 11:51:10;;;;;;;3.67;3.08;;;11.60;99.90;;;;;;5075703;28;20235;-88
2023/04/11 11:53:39;;;;;;;3.35;3.08;;;11.50;99.90;;;;;;5075924;28;20233;-89
2023/04/11 11:56:15;;;;;;;3.45;3.15;;;11.50;99.90;;;;;;5075625;28;20217;-88
2023/04/11 11:58:44;;;;;;;8.70;7.78;;;11.50;99.90;;;;;;5073911;28;20219;-88
2023/04/11 12:01:15;;;;;;;7.10;6.53;;;11.60;99.90;;;;;;5075603;28;20241;-88
2023/04/11 12:03:46;;;;;;;6.95;6.35;;;11.50;99.90;;;;;;5075759;28;20209;-87
2023/04/11 12:06:16;;;;;;;4.93;3.88;;;11.50;99.90;;;;;;5075909;28;20214;-87
2023/04/11 12:08:49;;;;;;;3.17;2.88;;;11.50;99.90;;;;;;5075234;28;20201;-87
2023/04/11 12:11:17;;;;;;;3.38;3.08;;;11.50;99.90;;;;;;5074865;28;20216;-86
2023/04/11 12:13:46;;;;;;;2.30;2.10;;;11.40;99.90;;;;;;5075468;28;20213;-86
2023/04/11 12:16:14;;;;;;;3.03;2.72;;;11.50;99.90;;;;;;5075074;28;20215;-87
2023/04/11 12:18:44;;;;;;;3.28;2.50;;;11.50;99.90;;;;;;5074625;28;20205;-81
2023/04/11 12:21:13;;;;;;;2.60;2.03;;;11.50;99.90;;;;;;5075374;28;20229;-81
2023/04/11 12:23:42;;;;;;;2.17;2.08;;;11.60;99.90;;;;;;5074779;28;20212;-81
2023/04/11 12:26:11;;;;;;;2.83;2.35;;;11.70;99.90;;;;;;5075097;28;20260;-81
2023/04/11 12:28:39;;;;;;;2.00;1.90;;;11.70;99.90;;;;;;5074381;28;20211;-81
2023/04/11 12:31:07;;;;;;;2.15;1.98;;;11.80;99.90;;;;;;5074864;28;20288;-81
2023/04/11 12:33:35;;;;;;;1.83;1.73;;;11.90;99.90;;;;;;5074999;28;20205;-81
2023/04/11 12:36:07;;;;;;;2.33;2.13;;;11.90;99.90;;;;;;5074281;28;20211;-81
2023/04/11 12:38:36;;;;;;;1.75;1.65;;;11.90;99.90;;;;;;5074068;28;20228;-81
2023/04/11 12:41:06;;;;;;;1.80;1.70;;;11.90;99.90;;;;;;5074843;28;20221;-81
2023/04/11 12:43:54;;;;;;;2.38;2.17;;;11.90;99.90;;;;;;5074945;28;20201;-81
2023/04/11 12:46:23;;;;;;;1.52;1.48;;;12.00;99.90;;;;;;5074643;28;20197;-81
2023/04/11 12:48:51;;;;;;;1.75;1.52;;;12.10;99.90;;;;;;5074066;28;20201;-81
2023/04/11 12:51:20;;;;;;;1.45;1.35;;;12.10;99.90;;;;;;5074406;28;20224;-81
2023/04/11 12:53:48;;;;;;;2.20;1.85;;;12.00;99.90;;;;;;5074408;28;20201;-80
2023/04/11 12:56:18;;;;;;;1.67;1.58;;;12.10;99.90;;;;;;5074463;28;20213;-80